Aviation Digital Data Service (ADDS)

Output produced by METARs form (1837 UTC 27 July 2017)
found at http://aviationweather.gov/adds/metars/
 
KDAN 271721Z 2718/2818 23008KT P6SM OVC070 
     FM272100 21008KT P6SM SHRA VCTS SCT040CB OVC060 
     FM280000 19005KT P6SM VCSH OVC080 
     FM280300 VRB03KT P6SM OVC090 
     FM281500 VRB05KT 6SM -SHRA OVC035